createdAt,value
2017-08-15T00:00:56.711Z,101253.02
2017-08-15T00:03:32.487Z,101251.78
2017-08-15T00:06:07.233Z,101245.83
2017-08-15T00:08:42.823Z,101249.09
2017-08-15T00:11:17.558Z,101246.00
2017-08-15T00:13:53.160Z,101241.05
2017-08-15T00:16:27.962Z,101239.92
2017-08-15T00:19:02.693Z,101243.94
2017-08-15T00:21:37.295Z,101232.49
2017-08-15T00:24:12.911Z,101227.98
2017-08-15T00:26:47.606Z,101223.63
2017-08-15T00:29:22.259Z,101220.59
2017-08-15T00:31:57.963Z,101218.45
2017-08-15T00:34:32.650Z,101212.28
2017-08-15T00:37:07.152Z,101209.55
2017-08-15T00:39:41.795Z,101208.18
2017-08-15T00:42:16.040Z,101206.03
2017-08-15T00:44:50.967Z,101200.69
2017-08-15T00:47:25.735Z,101194.25
2017-08-15T00:50:00.031Z,101200.15
2017-08-15T00:52:35.040Z,101192.79
2017-08-15T00:55:09.476Z,101195.34
2017-08-15T00:57:44.547Z,101194.16
2017-08-15T01:00:18.849Z,101186.41
2017-08-15T01:02:53.755Z,101185.31
2017-08-15T01:05:28.445Z,101191.79
2017-08-15T01:08:03.724Z,101184.42
2017-08-15T01:10:39.655Z,101180.77
2017-08-15T01:13:14.344Z,101186.50
2017-08-15T01:15:49.087Z,101201.29
2017-08-15T01:18:23.678Z,101233.03
2017-08-15T01:20:58.329Z,101213.13
2017-08-15T01:23:33.159Z,101241.06
2017-08-15T01:26:08.831Z,101234.41
2017-08-15T01:28:43.438Z,101228.94
2017-08-15T01:31:18.086Z,101220.13
2017-08-15T01:33:52.703Z,101211.84
2017-08-15T01:36:27.363Z,101203.61
2017-08-15T01:39:01.955Z,101199.81
2017-08-15T01:41:36.499Z,101204.89
2017-08-15T01:44:11.011Z,101181.39
2017-08-15T01:46:45.674Z,101189.05
2017-08-15T01:49:20.347Z,101187.04
2017-08-15T01:51:54.671Z,101187.73
2017-08-15T01:54:29.346Z,101179.46
2017-08-15T01:57:04.262Z,101173.69
2017-08-15T01:59:38.959Z,101178.98
2017-08-15T02:02:13.709Z,101177.88
2017-08-15T02:04:48.395Z,101178.58
2017-08-15T02:07:23.032Z,101175.98
2017-08-15T02:09:57.656Z,101181.40
2017-08-15T02:12:32.395Z,101180.65
2017-08-15T02:15:07.055Z,101179.28
2017-08-15T02:17:41.656Z,101175.62
2017-08-15T02:20:16.360Z,101169.63
2017-08-15T02:22:51.170Z,101171.83
2017-08-15T02:25:25.886Z,101173.02
2017-08-15T02:28:00.394Z,101177.41
2017-08-15T02:30:35.075Z,101176.73
2017-08-15T02:33:09.890Z,101174.02
2017-08-15T02:35:44.536Z,101176.30
2017-08-15T02:38:19.179Z,101176.13
2017-08-15T02:40:53.867Z,101164.81
2017-08-15T02:43:28.367Z,101173.02
2017-08-15T02:46:03.044Z,101177.84
2017-08-15T02:48:38.699Z,101166.56
2017-08-15T02:51:13.322Z,101165.47
2017-08-15T02:53:47.966Z,101163.31
2017-08-15T02:56:22.684Z,101163.17
2017-08-15T02:58:57.470Z,101157.02
2017-08-15T03:01:32.768Z,101161.47
2017-08-15T03:04:07.830Z,101162.66
2017-08-15T03:06:42.927Z,101157.72
2017-08-15T03:09:18.610Z,101158.20
2017-08-15T03:11:53.277Z,101152.31
2017-08-15T03:14:28.943Z,101152.31
2017-08-15T03:17:03.596Z,101149.22
2017-08-15T03:19:39.253Z,101137.71
2017-08-15T03:22:13.867Z,101146.03
2017-08-15T03:24:48.867Z,101149.73
2017-08-15T03:27:23.855Z,101139.59
2017-08-15T03:29:59.924Z,101135.95
2017-08-15T03:32:34.607Z,101129.55
2017-08-15T03:35:09.404Z,101131.14
2017-08-15T03:37:44.269Z,101133.86
2017-08-15T03:40:19.596Z,101128.08
2017-08-15T03:42:54.300Z,101131.52
2017-08-15T03:45:28.971Z,101126.55
2017-08-15T03:48:04.635Z,101130.23
2017-08-15T03:50:39.375Z,101130.16
2017-08-15T03:53:14.138Z,101131.38
2017-08-15T03:55:49.939Z,101125.84
2017-08-15T03:58:24.667Z,101122.63
2017-08-15T04:00:59.292Z,101123.89
2017-08-15T04:03:34.010Z,101119.53
2017-08-15T04:06:08.871Z,101122.73
2017-08-15T04:08:43.396Z,101133.95
2017-08-15T04:11:17.979Z,101123.04
2017-08-15T04:13:52.388Z,101120.94
2017-08-15T04:16:28.183Z,101114.78
2017-08-15T04:19:02.818Z,101120.23
2017-08-15T04:21:37.549Z,101118.90
2017-08-15T04:24:13.055Z,101125.00
2017-08-15T04:26:48.748Z,101118.59
2017-08-15T04:29:23.474Z,101121.05
2017-08-15T04:31:58.084Z,101119.23
2017-08-15T04:34:34.030Z,101121.81
2017-08-15T04:37:08.478Z,101115.92
2017-08-15T04:39:43.171Z,101117.38
2017-08-15T04:42:17.747Z,101119.09
2017-08-15T04:44:52.602Z,101111.50
2017-08-15T04:47:27.099Z,101104.80
2017-08-15T04:50:01.766Z,101107.91
2017-08-15T04:52:36.494Z,101112.45
2017-08-15T04:55:10.948Z,101105.64
2017-08-15T04:57:45.515Z,101102.05
2017-08-15T05:00:21.219Z,101102.70
2017-08-15T05:02:57.075Z,101104.78
2017-08-15T05:05:31.684Z,101105.33
2017-08-15T05:08:07.455Z,101098.36
2017-08-15T05:10:42.116Z,101099.03
2017-08-15T05:13:16.722Z,101095.54
2017-08-15T05:15:51.347Z,101092.32
2017-08-15T05:18:26.099Z,101094.02
2017-08-15T05:21:00.708Z,101094.30
2017-08-15T05:23:37.366Z,101082.40
2017-08-15T05:26:11.987Z,101088.02
2017-08-15T05:28:47.721Z,101091.55
2017-08-15T05:31:22.371Z,101088.45
2017-08-15T05:33:57.002Z,101081.88
2017-08-15T05:36:31.619Z,101085.08
2017-08-15T05:39:06.006Z,101082.84
2017-08-15T05:41:40.984Z,101084.05
2017-08-15T05:44:16.723Z,101085.61
2017-08-15T05:46:51.362Z,101088.81
2017-08-15T05:49:25.994Z,101086.41
2017-08-15T05:52:01.614Z,101077.03
2017-08-15T05:54:36.396Z,101075.27
2017-08-15T05:57:11.081Z,101072.35
2017-08-15T05:59:45.649Z,101068.03
2017-08-15T06:02:20.207Z,101072.19
2017-08-15T06:04:54.868Z,101078.05
2017-08-15T06:07:29.615Z,101076.25
2017-08-15T06:10:04.367Z,101065.88
2017-08-15T06:12:39.044Z,101069.23
2017-08-15T06:15:13.788Z,101062.56
2017-08-15T06:17:48.398Z,101069.75
2017-08-15T06:20:23.090Z,101072.51
2017-08-15T06:22:57.805Z,101072.83
2017-08-15T06:25:33.555Z,101075.43
2017-08-15T06:28:08.243Z,101071.47
2017-08-15T06:30:42.930Z,101078.89
2017-08-15T06:33:17.698Z,101074.41
2017-08-15T06:35:52.361Z,101077.77
2017-08-15T06:38:27.462Z,101080.47
2017-08-15T06:41:02.806Z,101072.98
2017-08-15T06:43:37.321Z,101073.05
2017-08-15T06:46:12.095Z,101078.13
2017-08-15T06:48:46.705Z,101083.58
2017-08-15T06:51:22.471Z,101077.53
2017-08-15T06:53:57.184Z,101073.55
2017-08-15T06:56:31.764Z,101076.12
2017-08-15T06:59:06.568Z,101080.89
2017-08-15T07:01:41.119Z,101077.30
2017-08-15T07:04:15.871Z,101067.33
2017-08-15T07:06:50.528Z,101055.17
2017-08-15T07:09:25.122Z,101049.41
2017-08-15T07:12:00.682Z,101044.49
2017-08-15T07:14:35.326Z,101038.20
2017-08-15T07:17:10.075Z,101038.80
2017-08-15T07:19:44.715Z,101041.73
2017-08-15T07:22:19.419Z,101040.59
2017-08-15T07:24:54.154Z,101046.53
2017-08-15T07:27:29.634Z,101058.02
2017-08-15T07:30:04.511Z,101067.73
2017-08-15T07:32:39.148Z,101059.61
2017-08-15T07:35:13.567Z,101065.65
2017-08-15T07:37:48.265Z,101070.50
2017-08-15T07:40:23.076Z,101081.55
2017-08-15T07:42:57.751Z,101090.69
2017-08-15T07:45:32.555Z,101087.56
2017-08-15T07:48:07.191Z,101084.55
2017-08-15T07:50:41.978Z,101071.20
2017-08-15T07:53:16.783Z,101067.89
2017-08-15T07:55:51.490Z,101071.79
2017-08-15T07:58:26.224Z,101078.60
2017-08-15T08:01:01.755Z,101078.22
2017-08-15T08:03:36.171Z,101074.40
2017-08-15T08:06:10.912Z,101079.20
2017-08-15T08:08:45.627Z,101076.27
2017-08-15T08:11:20.271Z,101064.86
2017-08-15T08:13:56.008Z,101064.75
2017-08-15T08:16:30.686Z,101067.50
2017-08-15T08:19:05.316Z,101064.59
2017-08-15T08:21:39.726Z,101057.44
2017-08-15T08:24:14.380Z,101042.72
2017-08-15T08:26:48.983Z,101041.95
2017-08-15T08:29:23.711Z,101036.41
2017-08-15T08:31:58.419Z,101025.25
2017-08-15T08:34:33.053Z,101026.22
2017-08-15T08:37:08.776Z,101020.46
2017-08-15T08:39:43.400Z,101034.95
2017-08-15T08:42:19.159Z,101032.80
2017-08-15T08:44:54.168Z,101028.55
2017-08-15T08:47:28.614Z,101034.63
2017-08-15T08:50:03.263Z,101038.64
2017-08-15T08:52:38.047Z,101046.37
2017-08-15T08:55:12.708Z,101046.18
2017-08-15T08:57:47.455Z,101054.66
2017-08-15T09:00:21.984Z,101059.75
2017-08-15T09:02:56.913Z,101065.72
2017-08-15T09:05:32.424Z,101068.66
2017-08-15T09:08:08.178Z,101061.22
2017-08-15T09:10:42.751Z,101080.23
2017-08-15T09:13:17.730Z,101088.95
2017-08-15T09:15:52.308Z,101100.81
2017-08-15T09:18:26.935Z,101105.92
2017-08-15T09:21:01.031Z,101105.00
2017-08-15T09:23:35.959Z,101104.36
2017-08-15T09:26:11.814Z,101099.67
2017-08-15T09:28:51.926Z,101111.87
2017-08-15T09:31:27.027Z,101107.73
2017-08-15T09:34:01.544Z,101108.19
2017-08-15T09:36:36.256Z,101106.41
2017-08-15T09:39:10.767Z,101098.88
2017-08-15T09:41:45.654Z,101100.17
2017-08-15T09:44:21.212Z,101111.44
2017-08-15T09:46:55.911Z,101115.76
2017-08-15T09:49:30.730Z,101109.08
2017-08-15T09:52:05.443Z,101113.37
2017-08-15T09:54:39.909Z,101116.45
2017-08-15T09:57:15.736Z,101108.17
2017-08-15T09:59:50.571Z,101104.70
2017-08-15T10:02:25.288Z,101100.34
2017-08-15T10:04:59.904Z,101099.26
2017-08-15T10:07:34.623Z,101095.11
2017-08-15T10:10:09.611Z,101088.55
2017-08-15T10:12:43.935Z,101085.98
2017-08-15T10:15:18.686Z,101078.97
2017-08-15T10:17:53.455Z,101079.92
2017-08-15T10:20:28.011Z,101071.81
2017-08-15T10:23:02.658Z,101070.31
2017-08-15T10:25:37.572Z,101072.96
2017-08-15T10:28:11.994Z,101066.98
2017-08-15T10:30:46.772Z,101065.28
2017-08-15T10:33:21.497Z,101061.66
2017-08-15T10:35:56.228Z,101060.30
2017-08-15T10:38:30.959Z,101053.17
2017-08-15T10:41:05.676Z,101068.39
2017-08-15T10:43:42.290Z,101055.05
2017-08-15T10:46:16.930Z,101061.77
2017-08-15T10:48:51.832Z,101072.18
2017-08-15T10:51:26.438Z,101054.11
2017-08-15T10:54:01.167Z,101053.03
2017-08-15T10:56:35.638Z,101054.84
2017-08-15T10:59:10.331Z,101049.00
2017-08-15T11:01:44.863Z,101046.23
2017-08-15T11:04:19.727Z,101054.70
2017-08-15T11:06:54.315Z,101045.48
2017-08-15T11:09:29.047Z,101051.15
2017-08-15T11:12:03.780Z,101056.70
2017-08-15T11:14:38.534Z,101042.66
2017-08-15T11:17:13.010Z,101043.97
2017-08-15T11:19:47.854Z,101037.72
2017-08-15T11:22:22.590Z,101038.41
2017-08-15T11:24:57.332Z,101036.87
2017-08-15T11:27:31.914Z,101033.73
2017-08-15T11:30:06.635Z,101025.61
2017-08-15T11:32:41.186Z,101019.19
2017-08-15T11:35:15.902Z,101022.60
2017-08-15T11:37:50.506Z,101020.11
2017-08-15T11:40:25.368Z,101013.48
2017-08-15T11:43:00.831Z,101014.62
2017-08-15T11:45:36.638Z,100998.88
2017-08-15T11:48:12.246Z,100992.59
2017-08-15T11:50:46.943Z,100992.95
2017-08-15T11:53:22.702Z,100988.12
2017-08-15T11:55:57.409Z,100980.05
2017-08-15T11:58:31.971Z,100985.69
2017-08-15T12:01:07.055Z,100989.37
2017-08-15T12:03:42.236Z,100979.09
2017-08-15T12:06:16.983Z,100976.22
2017-08-15T12:08:52.736Z,100976.03
2017-08-15T12:11:27.367Z,100982.66
2017-08-15T12:14:03.191Z,100977.70
2017-08-15T12:16:37.850Z,100970.32
2017-08-15T12:19:13.200Z,100976.83
2017-08-15T12:21:48.130Z,100972.08
2017-08-15T12:24:22.855Z,100978.02
2017-08-15T12:26:57.392Z,100966.17
2017-08-15T12:29:32.254Z,100958.08
2017-08-15T12:32:06.704Z,100955.20
2017-08-15T12:34:41.240Z,100953.44
2017-08-15T12:37:16.034Z,100943.96
2017-08-15T12:39:50.790Z,100935.59
2017-08-15T12:42:25.494Z,100942.21
2017-08-15T12:45:00.231Z,100949.95
2017-08-15T12:47:34.951Z,100941.13
2017-08-15T12:50:09.792Z,100928.62
2017-08-15T12:52:45.562Z,100925.08
2017-08-15T12:55:20.171Z,100928.73
2017-08-15T12:57:55.823Z,100930.77
2017-08-15T13:00:30.574Z,100937.12
2017-08-15T13:03:05.319Z,100932.29
2017-08-15T13:05:40.111Z,100925.06
2017-08-15T13:08:14.915Z,100911.75
2017-08-15T13:10:49.762Z,100915.51
2017-08-15T13:13:24.412Z,100916.58
2017-08-15T13:15:59.124Z,100917.00
2017-08-15T13:18:34.799Z,100909.55
2017-08-15T13:21:09.390Z,100916.27
2017-08-15T13:23:53.639Z,100921.00
2017-08-15T13:26:28.946Z,100908.90
2017-08-15T13:29:03.834Z,100917.97
2017-08-15T13:31:38.571Z,100918.30
2017-08-15T13:34:13.240Z,100921.92
2017-08-15T13:36:47.976Z,100917.84
2017-08-15T13:39:22.611Z,100911.52
2017-08-15T13:41:57.420Z,100903.80
2017-08-15T13:44:32.023Z,100917.44
2017-08-15T13:47:07.684Z,100909.77
2017-08-15T13:49:43.319Z,100918.09
2017-08-15T13:52:17.971Z,100905.34
2017-08-15T13:54:52.719Z,100883.73
2017-08-15T13:57:27.539Z,100886.73
2017-08-15T14:00:04.150Z,100888.73
2017-08-15T14:02:39.616Z,100892.36
2017-08-15T14:05:14.256Z,100890.56
2017-08-15T14:07:49.058Z,100888.39
2017-08-15T14:10:23.881Z,100891.47
2017-08-15T14:12:58.247Z,100890.61
2017-08-15T14:15:33.048Z,100893.27
2017-08-15T14:18:07.670Z,100899.04
2017-08-15T14:20:42.443Z,100905.46
2017-08-15T14:23:17.264Z,100909.36
2017-08-15T14:25:51.739Z,100912.91
2017-08-15T14:28:26.392Z,100908.59
2017-08-15T14:31:01.120Z,100913.71
2017-08-15T14:33:35.851Z,100912.16
2017-08-15T14:36:10.127Z,100916.11
2017-08-15T14:38:45.272Z,100921.05
2017-08-15T14:41:20.050Z,100918.09
2017-08-15T14:43:55.691Z,100921.84
2017-08-15T14:46:31.412Z,100919.86
2017-08-15T14:49:06.275Z,100926.33
2017-08-15T14:51:41.875Z,100929.81
2017-08-15T14:54:16.416Z,100925.11
2017-08-15T14:56:51.419Z,100921.28
2017-08-15T14:59:26.813Z,100926.38
2017-08-15T15:02:01.695Z,100929.44
2017-08-15T15:04:36.172Z,100929.85
2017-08-15T15:07:11.822Z,100928.81
2017-08-15T15:09:46.634Z,100934.42
2017-08-15T15:12:21.140Z,100927.52
2017-08-15T15:14:55.920Z,100926.90
2017-08-15T15:17:30.640Z,100930.12
2017-08-15T15:20:05.490Z,100924.87
2017-08-15T15:22:40.123Z,100927.59
2017-08-15T15:25:14.654Z,100923.09
2017-08-15T15:27:49.188Z,100926.23
2017-08-15T15:30:23.922Z,100921.58
2017-08-15T15:32:58.652Z,100929.23
2017-08-15T15:35:33.215Z,100921.42
2017-08-15T15:38:07.868Z,100922.59
2017-08-15T15:40:42.657Z,100916.94
2017-08-15T15:43:17.342Z,100921.05
2017-08-15T15:45:52.139Z,100916.13
2017-08-15T15:48:26.698Z,100909.56
2017-08-15T15:51:02.413Z,100916.06
2017-08-15T15:53:38.116Z,100913.78
2017-08-15T15:56:13.912Z,100903.77
2017-08-15T15:58:48.664Z,100902.25
2017-08-15T16:01:23.473Z,100901.51
2017-08-15T16:03:59.156Z,100896.95
2017-08-15T16:06:33.785Z,100885.86
2017-08-15T16:09:08.428Z,100880.67
2017-08-15T16:11:43.168Z,100868.08
2017-08-15T16:14:17.831Z,100867.95
2017-08-15T16:16:52.626Z,100860.13
2017-08-15T16:19:27.182Z,100862.78
2017-08-15T16:22:01.700Z,100860.37
2017-08-15T16:24:36.431Z,100866.73
2017-08-15T16:27:11.035Z,100865.28
2017-08-15T16:29:45.696Z,100875.08
2017-08-15T16:32:21.387Z,100881.29
2017-08-15T16:34:56.131Z,100885.30
2017-08-15T16:37:30.871Z,100888.45
2017-08-15T16:40:05.392Z,100885.55
2017-08-15T16:42:39.944Z,100889.45
2017-08-15T16:45:14.587Z,100891.66
2017-08-15T16:47:49.324Z,100886.90
2017-08-15T16:50:24.091Z,100891.53
2017-08-15T16:52:58.704Z,100881.44
2017-08-15T16:55:33.407Z,100890.50
2017-08-15T16:58:07.993Z,100884.14
2017-08-15T17:00:42.648Z,100877.68
2017-08-15T17:03:17.523Z,100881.03
2017-08-15T17:05:51.822Z,100882.97
2017-08-15T17:08:26.619Z,100884.35
2017-08-15T17:11:01.827Z,100881.16
2017-08-15T17:13:36.798Z,100880.16
2017-08-15T17:16:12.858Z,100882.12
2017-08-15T17:18:47.399Z,100874.80
2017-08-15T17:21:22.020Z,100867.62
2017-08-15T17:23:56.601Z,100865.97
2017-08-15T17:26:31.228Z,100871.68
2017-08-15T17:29:05.879Z,100865.85
2017-08-15T17:31:40.595Z,100872.91
2017-08-15T17:34:15.355Z,100879.47
2017-08-15T17:36:49.949Z,100880.18
2017-08-15T17:39:25.466Z,100887.84
2017-08-15T17:42:00.013Z,100896.70
2017-08-15T17:44:34.834Z,100905.88
2017-08-15T17:47:10.539Z,100914.19
2017-08-15T17:49:45.339Z,100928.53
2017-08-15T17:52:19.984Z,100929.17
2017-08-15T17:54:54.688Z,100931.87
2017-08-15T17:57:29.392Z,100939.82
2017-08-15T18:00:03.604Z,100937.48
2017-08-15T18:02:38.519Z,100950.12
2017-08-15T18:05:13.199Z,100948.41
2017-08-15T18:07:48.019Z,100956.88
2017-08-15T18:10:22.556Z,100965.38
2017-08-15T18:12:57.270Z,100978.00
2017-08-15T18:15:32.017Z,101044.75
2017-08-15T18:18:06.754Z,101068.94
2017-08-15T18:20:41.939Z,101070.39
2017-08-15T18:23:17.248Z,101081.36
2017-08-15T18:25:52.054Z,101098.98
2017-08-15T18:28:26.774Z,101094.34
2017-08-15T18:31:01.558Z,101084.07
2017-08-15T18:33:36.279Z,101081.43
2017-08-15T18:36:10.996Z,101085.35
2017-08-15T18:38:46.816Z,101086.91
2017-08-15T18:41:22.367Z,101080.56
2017-08-15T18:43:57.088Z,101077.16
2017-08-15T18:46:32.751Z,101098.80
2017-08-15T18:49:07.396Z,101109.13
2017-08-15T18:51:42.268Z,101106.30
2017-08-15T18:54:16.664Z,101106.12
2017-08-15T18:56:52.386Z,101099.69
2017-08-15T18:59:27.115Z,101093.63
2017-08-15T19:02:01.628Z,101099.88
2017-08-15T19:04:36.370Z,101100.80
2017-08-15T19:07:10.975Z,101111.03
2017-08-15T19:09:45.624Z,101102.80
2017-08-15T19:12:21.267Z,101103.67
2017-08-15T19:14:55.899Z,101108.97
2017-08-15T19:17:31.932Z,101100.31
2017-08-15T19:20:07.138Z,101103.47
2017-08-15T19:22:41.799Z,101106.86
2017-08-15T19:25:16.579Z,101106.66
2017-08-15T19:27:52.217Z,101110.75
2017-08-15T19:30:27.087Z,101114.75
2017-08-15T19:33:01.292Z,101116.33
2017-08-15T19:35:36.075Z,101113.17
2017-08-15T19:38:10.831Z,101121.94
2017-08-15T19:40:45.577Z,101125.91
2017-08-15T19:43:20.084Z,101127.58
2017-08-15T19:45:55.266Z,101131.47
2017-08-15T19:48:30.434Z,101132.37
2017-08-15T19:51:06.183Z,101126.97
2017-08-15T19:53:40.778Z,101118.37
2017-08-15T19:56:15.546Z,101114.69
2017-08-15T19:58:50.133Z,101115.34
2017-08-15T20:01:24.988Z,101120.19
2017-08-15T20:03:59.199Z,101124.64
2017-08-15T20:06:34.007Z,101131.26
2017-08-15T20:09:08.743Z,101129.67
2017-08-15T20:11:43.516Z,101133.13
2017-08-15T20:14:18.099Z,101120.80
2017-08-15T20:16:52.823Z,101102.73
2017-08-15T20:19:27.454Z,101113.30
2017-08-15T20:22:01.840Z,101122.52
2017-08-15T20:24:37.615Z,101124.07
2017-08-15T20:27:13.410Z,101124.66
2017-08-15T20:29:48.123Z,101130.83
2017-08-15T20:32:22.871Z,101141.26
2017-08-15T20:34:57.232Z,101138.05
2017-08-15T20:37:32.135Z,101143.82
2017-08-15T20:40:06.759Z,101132.05
2017-08-15T20:42:41.460Z,101129.48
2017-08-15T20:45:16.096Z,101130.38
2017-08-15T20:47:50.744Z,101143.71
2017-08-15T20:50:25.442Z,101147.14
2017-08-15T20:53:00.177Z,101136.88
2017-08-15T20:55:34.860Z,101129.61
2017-08-15T20:58:10.546Z,101122.47
2017-08-15T21:00:45.978Z,101126.33
2017-08-15T21:03:21.033Z,101131.92
2017-08-15T21:05:56.766Z,101127.72
2017-08-15T21:08:31.451Z,101125.51
2017-08-15T21:11:07.091Z,101130.20
2017-08-15T21:13:42.194Z,101125.00
2017-08-15T21:16:17.535Z,101136.38
2017-08-15T21:18:52.266Z,101134.56
2017-08-15T21:21:27.556Z,101137.32
2017-08-15T21:24:03.688Z,101153.93
2017-08-15T21:26:38.314Z,101147.92
2017-08-15T21:29:13.067Z,101173.84
2017-08-15T21:31:47.728Z,101171.27
2017-08-15T21:34:22.696Z,101166.75
2017-08-15T21:36:57.167Z,101178.05
2017-08-15T21:39:31.786Z,101173.40
2017-08-15T21:42:06.471Z,101184.19
2017-08-15T21:44:42.238Z,101187.69
2017-08-15T21:47:16.964Z,101198.22
2017-08-15T21:49:51.728Z,101196.17
2017-08-15T21:52:26.435Z,101194.55
2017-08-15T21:55:01.158Z,101197.29
2017-08-15T21:57:35.786Z,101195.59
2017-08-15T22:00:10.444Z,101202.25
2017-08-15T22:02:44.960Z,101206.17
2017-08-15T22:05:19.660Z,101207.97
2017-08-15T22:07:54.284Z,101202.85
2017-08-15T22:10:30.031Z,101204.13
2017-08-15T22:13:04.667Z,101191.65
2017-08-15T22:15:39.334Z,101196.78
2017-08-15T22:18:13.846Z,101210.20
2017-08-15T22:20:48.609Z,101204.03
2017-08-15T22:23:23.216Z,101209.67
2017-08-15T22:25:58.934Z,101207.10
2017-08-15T22:28:33.563Z,101210.95
2017-08-15T22:31:08.182Z,101207.98
2017-08-15T22:33:42.891Z,101209.16
2017-08-15T22:36:17.450Z,101205.12
2017-08-15T22:38:52.201Z,101214.47
2017-08-15T22:41:27.860Z,101216.17
2017-08-15T22:44:02.450Z,101215.58
2017-08-15T22:46:37.094Z,101218.77
2017-08-15T22:49:11.658Z,101212.00
2017-08-15T22:51:46.468Z,101219.42
2017-08-15T22:54:21.536Z,101224.41
2017-08-15T22:56:57.895Z,101228.25
2017-08-15T22:59:32.554Z,101234.48
2017-08-15T23:02:07.319Z,101234.49
2017-08-15T23:04:42.011Z,101235.95
2017-08-15T23:07:16.754Z,101231.67
2017-08-15T23:09:51.468Z,101231.99
2017-08-15T23:12:27.367Z,101225.41
2017-08-15T23:15:01.746Z,101225.59
2017-08-15T23:17:37.375Z,101228.74
2017-08-15T23:20:13.039Z,101235.33
2017-08-15T23:22:47.646Z,101237.31
2017-08-15T23:25:22.340Z,101248.33
2017-08-15T23:27:56.859Z,101249.56
2017-08-15T23:30:32.460Z,101239.68
2017-08-15T23:33:07.163Z,101246.27
2017-08-15T23:35:41.799Z,101249.40
2017-08-15T23:38:16.502Z,101255.40
2017-08-15T23:40:51.207Z,101248.27
2017-08-15T23:43:25.878Z,101248.01
2017-08-15T23:46:00.641Z,101243.30
2017-08-15T23:48:36.400Z,101253.04
2017-08-15T23:51:11.127Z,101254.15
2017-08-15T23:53:45.728Z,101262.75
2017-08-15T23:56:20.478Z,101257.90
2017-08-15T23:58:55.480Z,101257.17
